Time;durP1;ratioP1;P1;durP2;ratioP2;P2;SDS_P1;SDS_P2;PMS_P1;PMS_P2;Temp;Humidity;BMP_temperature;BMP_pressure;BME280_temperature;BME280_humidity;BME280_pressure;Samples;Min_cycle;Max_cycle;Signal;HPM_P1;HPM_P2
2021/12/04 00:00:09;;;;;;;4.63;3.30;;;;;;;;;;5093022;28;20486;-70
2021/12/04 00:02:37;;;;;;;2.03;1.80;;;;;;;;;;5092992;28;20450;-71
2021/12/04 00:05:06;;;;;;;2.63;1.93;;;;;;;;;;5093095;28;20564;-71
2021/12/04 00:07:35;;;;;;;4.00;2.33;;;;;;;;;;5092853;28;20454;-71
2021/12/04 00:10:03;;;;;;;2.20;2.00;;;;;;;;;;5092813;28;20454;-71
2021/12/04 00:12:32;;;;;;;3.97;2.13;;;;;;;;;;5092912;28;20455;-71
2021/12/04 00:14:59;;;;;;;3.70;2.50;;;;;;;;;;5092702;28;20459;-71
2021/12/04 00:17:27;;;;;;;2.50;2.27;;;;;;;;;;5092707;28;20961;-71
2021/12/04 00:19:55;;;;;;;4.07;2.20;;;;;;;;;;5092760;28;20486;-71
2021/12/04 00:22:22;;;;;;;2.80;2.30;;;;;;;;;;5093045;28;20443;-71
2021/12/04 00:24:49;;;;;;;3.10;2.60;;;;;;;;;;5092685;28;20454;-71
2021/12/04 00:27:17;;;;;;;3.13;2.83;;;;;;;;;;5092456;28;20447;-71
2021/12/04 00:29:44;;;;;;;4.80;2.70;;;;;;;;;;5092725;28;20447;-71
2021/12/04 00:32:14;;;;;;;3.40;2.50;;;;;;;;;;5092776;28;20464;-71
2021/12/04 00:34:44;;;;;;;4.07;3.00;;;;;;;;;;5092993;28;20450;-71
2021/12/04 00:49:07;;;;;;;4.70;2.37;;;;;;;;;;5096170;28;20991;-71
2021/12/04 00:51:15;;;;;;;2.33;1.87;;;;;;;;;;5095938;28;20542;-71
2021/12/04 00:53:43;;;;;;;2.43;2.00;;;;;;;;;;5096101;28;20474;-71
2021/12/04 00:56:10;;;;;;;5.60;2.30;;;;;;;;;;5095813;28;20442;-71
2021/12/04 00:58:37;;;;;;;8.27;1.80;;;;;;;;;;5095681;28;20450;-71
2021/12/04 01:01:05;;;;;;;2.97;2.20;;;;;;;;;;5095569;28;20953;-71
2021/12/04 01:03:35;;;;;;;2.00;1.47;;;;;;;;;;5095772;28;20451;-70
2021/12/04 01:06:02;;;;;;;2.63;2.20;;;;;;;;;;5096019;28;20951;-70
2021/12/04 01:08:29;;;;;;;2.30;1.47;;;;;;;;;;5095614;28;20454;-71
2021/12/04 01:10:57;;;;;;;3.60;1.93;;;;;;;;;;5095602;28;20443;-71
2021/12/04 01:13:24;;;;;;;1.47;1.30;;;;;;;;;;5095398;28;20951;-70
2021/12/04 01:15:51;;;;;;;3.43;1.47;;;;;;;;;;5095698;28;20457;-71
2021/12/04 01:18:19;;;;;;;4.30;1.80;;;;;;;;;;5095422;28;20451;-71
2021/12/04 01:20:46;;;;;;;2.40;1.53;;;;;;;;;;5095527;28;20485;-71
2021/12/04 01:23:15;;;;;;;2.80;1.90;;;;;;;;;;5095302;28;20450;-71
2021/12/04 01:25:43;;;;;;;2.23;1.57;;;;;;;;;;5095397;28;20557;-70
2021/12/04 01:28:11;;;;;;;2.53;2.33;;;;;;;;;;5095089;28;20816;-70
2021/12/04 01:30:39;;;;;;;1.40;1.30;;;;;;;;;;5095420;28;20443;-72
2021/12/04 01:33:06;;;;;;;4.33;2.10;;;;;;;;;;5095499;28;20457;-71
2021/12/04 01:35:33;;;;;;;2.30;1.70;;;;;;;;;;5095353;28;20450;-70
2021/12/04 01:38:00;;;;;;;3.47;1.70;;;;;;;;;;5095008;28;20822;-71
2021/12/04 01:40:27;;;;;;;3.57;1.83;;;;;;;;;;5095204;28;20490;-70
2021/12/04 01:42:54;;;;;;;2.00;1.67;;;;;;;;;;5095156;28;20494;-71
2021/12/04 01:45:23;;;;;;;4.50;1.73;;;;;;;;;;5095076;28;20458;-71
2021/12/04 01:47:50;;;;;;;2.20;1.60;;;;;;;;;;5094755;28;20446;-71
2021/12/04 01:50:17;;;;;;;3.07;1.90;;;;;;;;;;5095010;28;20450;-71
2021/12/04 01:52:44;;;;;;;4.00;2.23;;;;;;;;;;5094789;28;20455;-71
2021/12/04 01:55:11;;;;;;;2.00;1.77;;;;;;;;;;5094723;28;20936;-70
2021/12/04 01:57:38;;;;;;;2.90;1.50;;;;;;;;;;5094792;28;20524;-71
2021/12/04 02:00:06;;;;;;;2.60;1.50;;;;;;;;;;5094572;28;20486;-70
2021/12/04 02:02:35;;;;;;;2.10;1.77;;;;;;;;;;5094825;28;20447;-70
2021/12/04 02:05:02;;;;;;;3.50;1.80;;;;;;;;;;5094632;28;20458;-71
2021/12/04 02:07:30;;;;;;;6.30;1.77;;;;;;;;;;5094557;28;20827;-70
2021/12/04 02:09:57;;;;;;;3.03;1.60;;;;;;;;;;5094545;28;20496;-70
2021/12/04 02:12:24;;;;;;;1.83;1.43;;;;;;;;;;5094392;28;20888;-70
2021/12/04 02:14:51;;;;;;;1.83;1.30;;;;;;;;;;5094446;28;20458;-71
2021/12/04 02:17:19;;;;;;;2.03;1.40;;;;;;;;;;5094371;28;20443;-71
2021/12/04 02:19:48;;;;;;;1.90;1.70;;;;;;;;;;5094388;28;20850;-70
2021/12/04 02:22:16;;;;;;;2.60;1.50;;;;;;;;;;5094606;28;20462;-71
2021/12/04 02:24:44;;;;;;;2.00;1.60;;;;;;;;;;5094385;28;20451;-72
2021/12/04 02:27:13;;;;;;;2.80;1.53;;;;;;;;;;5094324;28;20451;-72
2021/12/04 02:29:46;;;;;;;1.60;1.50;;;;;;;;;;5094618;28;20454;-72
2021/12/04 02:32:13;;;;;;;2.80;1.93;;;;;;;;;;5094615;28;20900;-72
2021/12/04 02:34:40;;;;;;;2.00;1.37;;;;;;;;;;5095175;28;20450;-72
2021/12/04 02:37:08;;;;;;;2.17;1.50;;;;;;;;;;5094244;28;20458;-72
2021/12/04 02:39:39;;;;;;;4.70;1.67;;;;;;;;;;5094414;28;20999;-72
2021/12/04 02:42:06;;;;;;;3.90;1.90;;;;;;;;;;5094574;28;20550;-72
2021/12/04 02:44:35;;;;;;;2.20;1.60;;;;;;;;;;5094722;28;20446;-72
2021/12/04 02:47:02;;;;;;;3.90;1.80;;;;;;;;;;5094331;28;20450;-72
2021/12/04 02:49:29;;;;;;;2.17;1.53;;;;;;;;;;5093931;28;20454;-72
2021/12/04 02:51:56;;;;;;;1.87;1.40;;;;;;;;;;5094154;28;20954;-72
2021/12/04 02:54:23;;;;;;;11.60;2.00;;;;;;;;;;5094428;28;20822;-72
2021/12/04 02:56:52;;;;;;;2.63;1.53;;;;;;;;;;5094090;28;20469;-72
2021/12/04 02:59:19;;;;;;;2.90;1.90;;;;;;;;;;5093971;28;20446;-72
2021/12/04 03:01:46;;;;;;;2.60;1.67;;;;;;;;;;5094149;28;20442;-72
2021/12/04 03:04:14;;;;;;;1.47;1.30;;;;;;;;;;5093959;28;20807;-72
2021/12/04 03:06:43;;;;;;;1.80;1.50;;;;;;;;;;5093611;28;20473;-72
2021/12/04 03:09:10;;;;;;;3.30;2.30;;;;;;;;;;5094224;28;20467;-72
2021/12/04 03:11:37;;;;;;;6.07;2.60;;;;;;;;;;5093916;28;20470;-72
2021/12/04 03:14:06;;;;;;;7.60;2.10;;;;;;;;;;5093967;28;20462;-72
2021/12/04 03:16:34;;;;;;;1.80;1.50;;;;;;;;;;5093850;28;20446;-72
2021/12/04 03:19:01;;;;;;;1.93;1.50;;;;;;;;;;5093805;28;20471;-72
2021/12/04 03:21:28;;;;;;;3.13;1.70;;;;;;;;;;5093654;28;20490;-72
2021/12/04 03:23:58;;;;;;;2.50;1.77;;;;;;;;;;5093690;28;20935;-72
2021/12/04 03:26:25;;;;;;;3.40;2.30;;;;;;;;;;5093456;28;20467;-72
2021/12/04 03:28:55;;;;;;;14.03;2.43;;;;;;;;;;5093709;28;20862;-72
2021/12/04 03:31:38;;;;;;;4.47;1.87;;;;;;;;;;5093655;28;20432;-72
2021/12/04 03:42:19;;;;;;;2.43;1.93;;;;;;;;;;5093479;28;20937;-72
2021/12/04 03:44:46;;;;;;;2.00;1.57;;;;;;;;;;5093181;28;20453;-72
2021/12/04 03:47:15;;;;;;;2.13;1.43;;;;;;;;;;5093038;28;20454;-72
2021/12/04 03:49:42;;;;;;;2.10;1.70;;;;;;;;;;5093404;28;20457;-72
2021/12/04 03:52:10;;;;;;;8.10;2.57;;;;;;;;;;5093122;28;20438;-72
2021/12/04 03:54:37;;;;;;;5.63;2.20;;;;;;;;;;5093545;28;20454;-72
2021/12/04 03:57:04;;;;;;;4.23;2.47;;;;;;;;;;5093305;28;20957;-73
2021/12/04 03:59:32;;;;;;;5.20;1.90;;;;;;;;;;5093944;28;20450;-72
2021/12/04 04:01:59;;;;;;;6.30;2.13;;;;;;;;;;5093214;28;20450;-73
2021/12/04 04:04:27;;;;;;;3.83;1.80;;;;;;;;;;5092940;28;20457;-73
2021/12/04 04:06:55;;;;;;;5.07;2.00;;;;;;;;;;5092921;28;20457;-73
2021/12/04 04:09:22;;;;;;;3.00;1.73;;;;;;;;;;5093143;28;20474;-73
2021/12/04 04:11:49;;;;;;;3.77;2.10;;;;;;;;;;5093079;28;20483;-73
2021/12/04 04:14:16;;;;;;;2.57;1.70;;;;;;;;;;5093083;28;20459;-73
2021/12/04 04:16:43;;;;;;;2.80;1.87;;;;;;;;;;5093544;28;20792;-72
2021/12/04 04:19:11;;;;;;;10.97;3.43;;;;;;;;;;5094049;28;20453;-73
2021/12/04 04:21:41;;;;;;;3.70;2.17;;;;;;;;;;5096682;28;20466;-72
2021/12/04 04:24:09;;;;;;;3.63;2.33;;;;;;;;;;5096992;28;20470;-72
2021/12/04 04:26:36;;;;;;;4.80;2.13;;;;;;;;;;5096930;28;20936;-73
2021/12/04 04:29:04;;;;;;;3.90;2.17;;;;;;;;;;5096444;28;20450;-74
2021/12/04 04:31:31;;;;;;;5.20;2.00;;;;;;;;;;5096520;28;20575;-74
2021/12/04 04:34:02;;;;;;;2.10;1.70;;;;;;;;;;5096560;28;20454;-73
2021/12/04 04:36:43;;;;;;;5.70;2.00;;;;;;;;;;5096748;28;20467;-74
2021/12/04 04:39:23;;;;;;;2.43;1.70;;;;;;;;;;5096388;28;20450;-73
2021/12/04 04:58:40;;;;;;;3.70;2.50;;;;;;;;;;5096235;28;20782;-73
2021/12/04 05:01:31;;;;;;;4.40;2.20;;;;;;;;;;5096197;28;20986;-73
2021/12/04 05:12:23;;;;;;;3.70;1.80;;;;;;;;;;5095673;28;20816;-72
2021/12/04 05:14:56;;;;;;;3.10;2.07;;;;;;;;;;5095617;28;20438;-72
2021/12/04 05:17:40;;;;;;;4.23;1.80;;;;;;;;;;5095483;28;20541;-72
2021/12/04 05:20:08;;;;;;;3.50;1.73;;;;;;;;;;5095340;28;20889;-72
2021/12/04 05:22:35;;;;;;;3.27;1.70;;;;;;;;;;5095547;28;20819;-72
2021/12/04 05:25:02;;;;;;;4.10;2.07;;;;;;;;;;5095314;28;20454;-72
2021/12/04 05:27:31;;;;;;;1.87;1.50;;;;;;;;;;5095381;28;20473;-72
2021/12/04 05:29:58;;;;;;;2.50;1.90;;;;;;;;;;5095011;28;20451;-72
2021/12/04 05:32:25;;;;;;;4.13;2.20;;;;;;;;;;5095227;28;20454;-72
2021/12/04 05:34:52;;;;;;;4.50;4.10;;;;;;;;;;5095098;28;20454;-72
2021/12/04 05:37:19;;;;;;;6.07;2.23;;;;;;;;;;5094954;28;20553;-72
2021/12/04 05:39:46;;;;;;;4.80;3.40;;;;;;;;;;5095300;28;20465;-72
2021/12/04 05:42:13;;;;;;;3.17;2.40;;;;;;;;;;5095029;28;20493;-72
2021/12/04 05:44:43;;;;;;;6.93;2.83;;;;;;;;;;5095191;28;20477;-72
2021/12/04 05:47:16;;;;;;;2.90;2.57;;;;;;;;;;5094941;28;20450;-72
2021/12/04 05:49:53;;;;;;;4.03;2.40;;;;;;;;;;5095134;28;20504;-72
2021/12/04 05:52:35;;;;;;;2.03;1.77;;;;;;;;;;5095234;28;20813;-72
2021/12/04 05:55:12;;;;;;;2.60;2.13;;;;;;;;;;5095190;28;20462;-72
2021/12/04 05:57:39;;;;;;;2.37;1.70;;;;;;;;;;5094862;28;20466;-72
2021/12/04 06:00:09;;;;;;;1.70;1.60;;;;;;;;;;5094863;28;20458;-72
2021/12/04 06:02:36;;;;;;;9.30;5.70;;;;;;;;;;5094934;28;20454;-72
2021/12/04 06:05:04;;;;;;;5.10;2.00;;;;;;;;;;5094672;28;20450;-72
2021/12/04 06:07:31;;;;;;;1.87;1.20;;;;;;;;;;5094644;28;20449;-72
2021/12/04 06:09:58;;;;;;;2.37;1.90;;;;;;;;;;5094831;28;20936;-72
2021/12/04 06:12:25;;;;;;;2.63;1.60;;;;;;;;;;5094517;28;20858;-72
2021/12/04 06:14:52;;;;;;;1.97;1.77;;;;;;;;;;5094656;28;20457;-72
2021/12/04 06:17:22;;;;;;;7.47;3.07;;;;;;;;;;5094534;28;20446;-72
2021/12/04 06:22:41;;;;;;;11.90;5.77;;;;;;;;;;5094586;28;20952;-72
2021/12/04 06:25:09;;;;;;;2.47;2.27;;;;;;;;;;5094696;28;20449;-72
2021/12/04 06:27:37;;;;;;;3.00;2.20;;;;;;;;;;5094135;28;20459;-72
2021/12/04 06:30:04;;;;;;;3.70;1.80;;;;;;;;;;5094287;28;20470;-72
2021/12/04 06:32:35;;;;;;;3.43;2.23;;;;;;;;;;5094250;28;20451;-72
2021/12/04 06:35:02;;;;;;;2.63;1.70;;;;;;;;;;5094148;28;20488;-72
2021/12/04 06:37:29;;;;;;;3.40;2.10;;;;;;;;;;5093950;28;20469;-72
2021/12/04 06:39:56;;;;;;;3.67;1.80;;;;;;;;;;5094215;28;20438;-72
2021/12/04 06:42:23;;;;;;;2.40;1.80;;;;;;;;;;5093461;28;20855;-72
2021/12/04 06:44:53;;;;;;;2.03;1.60;;;;;;;;;;5093937;28;20490;-72
2021/12/04 06:47:20;;;;;;;2.63;2.07;;;;;;;;;;5094014;28;20552;-72
2021/12/04 06:49:51;;;;;;;2.90;1.83;;;;;;;;;;5094023;28;20511;-71
2021/12/04 06:52:21;;;;;;;2.77;1.97;;;;;;;;;;5094078;28;20444;-72
2021/12/04 06:54:54;;;;;;;6.33;3.47;;;;;;;;;;5093818;28;20457;-72
2021/12/04 06:57:21;;;;;;;4.00;2.73;;;;;;;;;;5093751;28;20450;-72
2021/12/04 06:59:51;;;;;;;3.80;2.30;;;;;;;;;;5093822;28;20827;-72
2021/12/04 07:02:19;;;;;;;4.60;2.63;;;;;;;;;;5093743;28;20493;-72
2021/12/04 07:04:46;;;;;;;3.80;2.73;;;;;;;;;;5093806;28;20450;-72
2021/12/04 07:07:15;;;;;;;5.50;3.17;;;;;;;;;;5093507;28;20974;-72
2021/12/04 07:09:42;;;;;;;3.20;2.90;;;;;;;;;;5093711;28;20453;-72
2021/12/04 07:12:10;;;;;;;4.10;2.53;;;;;;;;;;5093739;28;20445;-72
2021/12/04 07:14:37;;;;;;;4.63;2.30;;;;;;;;;;5093725;28;20465;-72
2021/12/04 07:17:05;;;;;;;2.90;2.53;;;;;;;;;;5093149;28;20447;-72
2021/12/04 07:19:32;;;;;;;4.77;3.27;;;;;;;;;;5093742;28;20923;-72
2021/12/04 07:22:01;;;;;;;5.00;3.07;;;;;;;;;;5093530;28;20483;-72
2021/12/04 07:24:31;;;;;;;3.63;2.30;;;;;;;;;;5093436;28;20462;-72
2021/12/04 07:26:58;;;;;;;3.03;2.20;;;;;;;;;;5093253;28;20482;-72
2021/12/04 07:29:25;;;;;;;6.20;4.17;;;;;;;;;;5093268;28;20466;-72
2021/12/04 07:31:52;;;;;;;6.33;4.20;;;;;;;;;;5093180;28;20454;-72
2021/12/04 07:34:19;;;;;;;3.57;2.50;;;;;;;;;;5093258;28;20454;-72
2021/12/04 07:36:46;;;;;;;12.40;5.50;;;;;;;;;;5093053;28;20455;-72
2021/12/04 07:39:14;;;;;;;18.50;9.60;;;;;;;;;;5093090;28;20864;-72
2021/12/04 07:41:43;;;;;;;14.43;8.10;;;;;;;;;;5093187;28;20493;-72
2021/12/04 07:44:10;;;;;;;5.23;4.20;;;;;;;;;;5092979;28;20539;-72
2021/12/04 07:46:37;;;;;;;3.70;2.63;;;;;;;;;;5093238;28;20947;-72
2021/12/04 07:49:05;;;;;;;4.00;2.40;;;;;;;;;;5093195;28;20446;-72
2021/12/04 07:51:32;;;;;;;5.60;4.20;;;;;;;;;;5093318;28;20446;-72
2021/12/04 07:53:59;;;;;;;9.50;5.47;;;;;;;;;;5095593;28;20451;-72
2021/12/04 07:56:26;;;;;;;3.97;2.47;;;;;;;;;;5097325;28;20462;-72
2021/12/04 07:58:55;;;;;;;4.10;3.50;;;;;;;;;;5096957;28;20454;-72
2021/12/04 08:01:23;;;;;;;27.10;11.00;;;;;;;;;;5097620;28;20541;-72
2021/12/04 08:03:50;;;;;;;16.07;6.83;;;;;;;;;;5097049;28;20458;-72
2021/12/04 08:06:17;;;;;;;5.20;3.40;;;;;;;;;;5097101;28;20954;-72
2021/12/04 08:08:44;;;;;;;15.07;2.57;;;;;;;;;;5096765;28;20462;-72
2021/12/04 08:11:11;;;;;;;9.33;3.60;;;;;;;;;;5097041;28;20458;-72
2021/12/04 08:13:39;;;;;;;3.53;2.90;;;;;;;;;;5096880;28;20446;-72
2021/12/04 08:16:07;;;;;;;5.50;2.87;;;;;;;;;;5096882;28;20458;-72
2021/12/04 08:18:34;;;;;;;3.53;2.50;;;;;;;;;;5096607;28;20450;-72
2021/12/04 08:21:01;;;;;;;9.23;4.67;;;;;;;;;;5096624;28;20490;-72
2021/12/04 08:23:29;;;;;;;14.83;6.27;;;;;;;;;;5096863;28;20450;-72
2021/12/04 08:25:56;;;;;;;7.77;4.60;;;;;;;;;;5096584;28;20455;-72
2021/12/04 08:28:23;;;;;;;6.10;4.37;;;;;;;;;;5096687;28;20450;-72
2021/12/04 08:30:51;;;;;;;11.97;6.93;;;;;;;;;;5097085;28;20451;-72
2021/12/04 08:33:19;;;;;;;9.50;3.80;;;;;;;;;;5097008;28;20450;-72
2021/12/04 08:35:46;;;;;;;7.40;3.73;;;;;;;;;;5096786;28;20901;-72
2021/12/04 08:38:17;;;;;;;5.60;2.63;;;;;;;;;;5096891;28;20796;-72
2021/12/04 08:40:44;;;;;;;9.10;4.10;;;;;;;;;;5096455;28;20454;-72
2021/12/04 08:43:12;;;;;;;9.47;4.70;;;;;;;;;;5096786;28;20852;-72
2021/12/04 08:45:40;;;;;;;10.30;5.20;;;;;;;;;;5096775;28;20816;-72
2021/12/04 08:48:07;;;;;;;9.20;5.50;;;;;;;;;;5096367;28;20450;-72
2021/12/04 08:50:37;;;;;;;11.10;7.40;;;;;;;;;;5096648;28;20458;-72
2021/12/04 08:53:04;;;;;;;6.00;4.57;;;;;;;;;;5096595;28;20810;-72
2021/12/04 08:55:32;;;;;;;3.50;2.33;;;;;;;;;;5096581;28;20462;-72
2021/12/04 08:58:00;;;;;;;5.03;3.43;;;;;;;;;;5090748;28;20467;-72
2021/12/04 09:00:29;;;;;;;2.70;1.97;;;;;;;;;;5076242;28;20832;-72
2021/12/04 09:02:56;;;;;;;2.53;2.27;;;;;;;;;;5075761;28;20488;-72
2021/12/04 09:05:24;;;;;;;4.17;2.57;;;;;;;;;;5077500;28;20947;-72
2021/12/04 09:07:53;;;;;;;6.17;3.23;;;;;;;;;;5074463;28;20463;-72
2021/12/04 09:10:20;;;;;;;5.97;3.70;;;;;;;;;;5074135;28;20471;-72
2021/12/04 09:12:48;;;;;;;3.90;2.30;;;;;;;;;;5074417;28;20471;-72
2021/12/04 09:15:17;;;;;;;16.23;9.10;;;;;;;;;;5074006;28;20463;-71
2021/12/04 09:17:44;;;;;;;17.20;9.00;;;;;;;;;;5074281;28;20969;-71
2021/12/04 09:20:15;;;;;;;3.50;2.03;;;;;;;;;;5073997;28;20476;-71
2021/12/04 09:22:42;;;;;;;3.10;2.00;;;;;;;;;;5074041;28;20487;-71
2021/12/04 09:25:13;;;;;;;3.30;2.30;;;;;;;;;;5073930;28;20467;-72
2021/12/04 09:27:49;;;;;;;2.50;2.30;;;;;;;;;;5074075;28;20960;-72
2021/12/04 09:33:45;;;;;;;3.90;2.50;;;;;;;;;;5073574;28;20452;-72
2021/12/04 09:36:45;;;;;;;4.30;2.70;;;;;;;;;;5073939;28;20482;-72
2021/12/04 10:01:40;;;;;;;8.57;5.50;;;;;;;;;;5073301;28;20509;-72
2021/12/04 10:04:26;;;;;;;5.83;3.60;;;;;;;;;;5073496;28;20452;-72
2021/12/04 10:13:08;;;;;;;9.47;4.60;;;;;;;;;;5093157;28;20422;-72
2021/12/04 10:24:33;;;;;;;7.07;4.23;;;;;;;;;;5082660;28;20541;-72
2021/12/04 10:32:38;;;;;;;8.10;5.70;;;;;;;;;;5094761;28;20783;-73
2021/12/04 10:35:08;;;;;;;8.37;4.90;;;;;;;;;;5094429;28;20485;-73
2021/12/04 10:37:37;;;;;;;10.07;6.50;;;;;;;;;;5094246;28;20462;-72
2021/12/04 10:40:07;;;;;;;6.70;4.37;;;;;;;;;;5094578;28;20808;-72
2021/12/04 10:42:41;;;;;;;6.83;4.10;;;;;;;;;;5094523;28;20561;-72
2021/12/04 10:45:09;;;;;;;4.03;3.20;;;;;;;;;;5094595;28;20470;-72
2021/12/04 10:47:38;;;;;;;5.87;3.80;;;;;;;;;;5094167;28;20490;-73
2021/12/04 10:50:19;;;;;;;15.00;8.03;;;;;;;;;;5094344;28;20462;-72
2021/12/04 10:52:55;;;;;;;11.50;4.93;;;;;;;;;;5094106;28;20431;-72
2021/12/04 10:55:25;;;;;;;10.67;6.53;;;;;;;;;;5094054;28;20484;-72
2021/12/04 10:58:28;;;;;;;6.47;4.60;;;;;;;;;;5094254;28;20465;-72
2021/12/04 11:01:10;;;;;;;7.93;5.00;;;;;;;;;;5094191;28;20505;-72
2021/12/04 11:03:54;;;;;;;5.37;4.33;;;;;;;;;;5094115;28;20832;-72
2021/12/04 11:06:42;;;;;;;12.43;7.07;;;;;;;;;;5092725;28;20461;-71
2021/12/04 11:26:15;;;;;;;43.60;20.23;;;;;;;;;;5092271;28;20757;-73
2021/12/04 11:37:19;;;;;;;58.57;25.83;;;;;;;;;;5092159;28;20499;-73
2021/12/04 11:42:40;;;;;;;87.77;37.60;;;;;;;;;;5075981;28;20486;-73
2021/12/04 11:45:14;;;;;;;20.60;12.17;;;;;;;;;;5092243;28;20477;-73
2021/12/04 11:47:42;;;;;;;31.07;15.67;;;;;;;;;;5092178;28;20516;-73
2021/12/04 11:50:16;;;;;;;6.23;4.63;;;;;;;;;;5091950;28;20561;-73
2021/12/04 11:52:47;;;;;;;13.63;7.27;;;;;;;;;;5092302;28;20467;-73
2021/12/04 11:55:15;;;;;;;7.20;4.30;;;;;;;;;;5092137;28;20464;-73
2021/12/04 11:57:42;;;;;;;5.93;4.90;;;;;;;;;;5092513;28;20470;-73
2021/12/04 12:00:14;;;;;;;16.33;10.10;;;;;;;;;;5092497;28;20864;-73
2021/12/04 12:02:42;;;;;;;17.73;9.67;;;;;;;;;;5092148;28;20497;-73
2021/12/04 12:05:15;;;;;;;7.43;4.77;;;;;;;;;;5091716;28;20955;-73
2021/12/04 12:07:51;;;;;;;7.60;5.20;;;;;;;;;;5092154;28;20459;-73
2021/12/04 12:10:18;;;;;;;7.00;4.83;;;;;;;;;;5091983;28;20450;-73
2021/12/04 12:12:48;;;;;;;7.97;5.50;;;;;;;;;;5091868;28;20466;-73
2021/12/04 12:15:21;;;;;;;7.83;6.30;;;;;;;;;;5091828;28;20500;-73
2021/12/04 12:17:48;;;;;;;10.90;5.60;;;;;;;;;;5091983;28;20470;-73
2021/12/04 12:20:21;;;;;;;6.80;5.87;;;;;;;;;;5091825;28;20471;-74
2021/12/04 12:22:51;;;;;;;7.93;5.73;;;;;;;;;;5091743;28;20478;-73
2021/12/04 12:25:25;;;;;;;7.57;5.77;;;;;;;;;;5092373;28;20527;-73
2021/12/04 12:31:45;;;;;;;7.50;5.30;;;;;;;;;;5093087;28;20463;-73
2021/12/04 12:33:35;;;;;;;10.13;7.00;;;;;;;;;;5092958;28;20433;-73
2021/12/04 12:36:06;;;;;;;10.80;7.23;;;;;;;;;;5092838;28;20473;-73
2021/12/04 12:38:38;;;;;;;8.90;7.10;;;;;;;;;;5093183;28;20836;-73
2021/12/04 12:41:08;;;;;;;13.20;6.50;;;;;;;;;;5095540;28;20458;-73
2021/12/04 12:43:38;;;;;;;6.50;5.57;;;;;;;;;;5096820;28;20583;-74
2021/12/04 12:46:05;;;;;;;9.63;6.00;;;;;;;;;;5097423;28;20931;-73
2021/12/04 12:48:42;;;;;;;10.40;6.87;;;;;;;;;;5096822;28;20446;-74
2021/12/04 12:51:09;;;;;;;19.80;10.93;;;;;;;;;;5096904;28;20443;-74
2021/12/04 12:53:42;;;;;;;20.27;10.30;;;;;;;;;;5096615;28;20446;-74
2021/12/04 12:56:12;;;;;;;58.83;21.93;;;;;;;;;;5096689;28;20467;-74
2021/12/04 12:58:43;;;;;;;26.13;13.77;;;;;;;;;;5096808;28;20450;-74
2021/12/04 13:12:48;;;;;;;9.17;5.83;;;;;;;;;;5090524;28;20491;-74
2021/12/04 13:15:16;;;;;;;8.40;5.47;;;;;;;;;;5096245;28;20439;-74
2021/12/04 13:17:44;;;;;;;9.87;6.23;;;;;;;;;;5095915;28;20453;-74
2021/12/04 13:20:12;;;;;;;8.70;5.70;;;;;;;;;;5095863;28;20441;-74
2021/12/04 13:22:39;;;;;;;10.37;5.70;;;;;;;;;;5096305;28;20493;-74
2021/12/04 13:25:08;;;;;;;6.20;5.50;;;;;;;;;;5096066;28;20804;-74
2021/12/04 13:30:06;;;;;;;8.50;6.63;;;;;;;;;;5096059;28;20501;-74
2021/12/04 13:32:34;;;;;;;7.90;5.37;;;;;;;;;;5095865;28;20427;-74
2021/12/04 13:35:08;;;;;;;11.23;4.53;;;;;;;;;;5096014;28;20451;-74
2021/12/04 13:37:36;;;;;;;8.60;6.47;;;;;;;;;;5095337;28;20894;-74
2021/12/04 13:40:06;;;;;;;10.73;5.70;;;;;;;;;;5095583;28;20471;-74
2021/12/04 13:42:33;;;;;;;9.50;5.20;;;;;;;;;;5095565;28;20826;-74
2021/12/04 13:45:00;;;;;;;8.00;5.47;;;;;;;;;;5095873;28;20446;-74
2021/12/04 13:47:29;;;;;;;9.60;5.50;;;;;;;;;;5095236;28;20451;-74
2021/12/04 13:50:00;;;;;;;14.60;4.87;;;;;;;;;;5095512;28;20920;-74
2021/12/04 13:52:28;;;;;;;7.17;5.07;;;;;;;;;;5095289;28;20446;-73
2021/12/04 13:54:57;;;;;;;6.03;4.70;;;;;;;;;;5095411;28;20454;-73
2021/12/04 13:57:24;;;;;;;5.90;5.40;;;;;;;;;;5095056;28;20454;-73
2021/12/04 13:59:51;;;;;;;10.73;7.60;;;;;;;;;;5095019;28;20466;-73
2021/12/04 14:02:22;;;;;;;8.20;5.80;;;;;;;;;;5095148;28;20450;-73
2021/12/04 14:04:58;;;;;;;9.50;5.20;;;;;;;;;;5094853;28;20458;-73
2021/12/04 14:07:25;;;;;;;8.20;5.30;;;;;;;;;;5094799;28;20450;-73
2021/12/04 14:09:52;;;;;;;11.57;5.57;;;;;;;;;;5095103;28;20447;-73
2021/12/04 14:12:19;;;;;;;8.87;6.20;;;;;;;;;;5095080;28;20525;-73
2021/12/04 14:14:46;;;;;;;13.63;6.53;;;;;;;;;;5094868;28;20455;-72
2021/12/04 14:17:15;;;;;;;8.77;6.27;;;;;;;;;;5095068;28;20442;-72
2021/12/04 14:19:43;;;;;;;7.70;4.70;;;;;;;;;;5095009;28;20500;-72
2021/12/04 14:22:13;;;;;;;11.13;5.90;;;;;;;;;;5095042;28;20798;-72
2021/12/04 14:24:43;;;;;;;7.90;4.33;;;;;;;;;;5094930;28;20450;-72
2021/12/04 14:27:11;;;;;;;8.10;4.57;;;;;;;;;;5094924;28;20447;-72
2021/12/04 14:29:41;;;;;;;8.30;4.30;;;;;;;;;;5094683;28;20439;-74
2021/12/04 14:32:08;;;;;;;7.57;4.60;;;;;;;;;;5094472;28;20458;-74
2021/12/04 14:34:36;;;;;;;8.03;4.80;;;;;;;;;;5094401;28;20442;-74
2021/12/04 14:37:04;;;;;;;6.20;3.87;;;;;;;;;;5093994;28;20463;-74
2021/12/04 14:39:33;;;;;;;8.07;5.47;;;;;;;;;;5094051;28;20459;-74
2021/12/04 14:42:00;;;;;;;7.43;5.63;;;;;;;;;;5094120;28;20455;-74
2021/12/04 14:44:27;;;;;;;5.93;5.13;;;;;;;;;;5093955;28;20486;-74
2021/12/04 14:46:55;;;;;;;9.60;5.47;;;;;;;;;;5093861;28;20446;-74
2021/12/04 14:49:22;;;;;;;7.83;5.27;;;;;;;;;;5094210;28;20455;-74
2021/12/04 14:51:49;;;;;;;7.10;6.10;;;;;;;;;;5094024;28;20459;-74
2021/12/04 14:54:27;;;;;;;9.00;6.87;;;;;;;;;;5093986;28;20442;-74
2021/12/04 14:56:55;;;;;;;14.93;8.63;;;;;;;;;;5093829;28;20450;-74
2021/12/04 14:59:23;;;;;;;10.70;6.00;;;;;;;;;;5094186;28;20456;-74
2021/12/04 15:01:51;;;;;;;10.07;6.23;;;;;;;;;;5093808;28;20462;-74
2021/12/04 15:04:18;;;;;;;12.00;7.10;;;;;;;;;;5093179;28;21018;-74
2021/12/04 15:06:46;;;;;;;10.83;6.30;;;;;;;;;;5093661;28;20479;-74
2021/12/04 15:09:14;;;;;;;9.10;6.70;;;;;;;;;;5093935;28;20515;-74
2021/12/04 15:11:43;;;;;;;7.70;5.63;;;;;;;;;;5093585;28;20516;-75
2021/12/04 15:14:14;;;;;;;9.87;6.20;;;;;;;;;;5093863;28;20852;-74
2021/12/04 15:16:46;;;;;;;7.57;5.17;;;;;;;;;;5093736;28;20457;-74
2021/12/04 15:19:17;;;;;;;9.03;5.43;;;;;;;;;;5093638;28;21080;-74
2021/12/04 15:21:51;;;;;;;9.80;6.47;;;;;;;;;;5093689;28;20872;-75
2021/12/04 15:24:22;;;;;;;9.67;7.20;;;;;;;;;;5093429;28;20922;-74
2021/12/04 15:26:51;;;;;;;10.67;6.80;;;;;;;;;;5093304;28;20482;-74
2021/12/04 15:29:20;;;;;;;16.47;8.83;;;;;;;;;;5093470;28;20458;-73
2021/12/04 15:31:48;;;;;;;14.50;8.17;;;;;;;;;;5093473;28;20454;-73
2021/12/04 15:34:15;;;;;;;16.73;8.60;;;;;;;;;;5093242;28;20439;-73
2021/12/04 15:36:46;;;;;;;13.83;8.70;;;;;;;;;;5093292;28;20462;-73
2021/12/04 15:39:27;;;;;;;12.33;9.10;;;;;;;;;;5093328;28;20822;-73
2021/12/04 15:42:10;;;;;;;9.40;7.80;;;;;;;;;;5093499;28;20503;-74
2021/12/04 15:44:49;;;;;;;13.67;9.73;;;;;;;;;;5093372;28;21002;-73
2021/12/04 15:47:24;;;;;;;10.67;7.70;;;;;;;;;;5093201;28;20935;-73
2021/12/04 15:55:21;;;;;;;11.50;7.43;;;;;;;;;;5093136;28;20418;-74
2021/12/04 15:57:53;;;;;;;11.83;6.80;;;;;;;;;;5093283;28;20480;-73
2021/12/04 16:00:25;;;;;;;13.17;8.83;;;;;;;;;;5093103;28;20499;-74
2021/12/04 16:02:55;;;;;;;13.83;8.87;;;;;;;;;;5093105;28;20443;-75
2021/12/04 16:05:24;;;;;;;11.27;8.40;;;;;;;;;;5093121;28;20466;-74
2021/12/04 16:07:52;;;;;;;12.30;9.20;;;;;;;;;;5092936;28;20455;-74
2021/12/04 16:10:21;;;;;;;16.00;10.00;;;;;;;;;;5093194;28;20458;-74
2021/12/04 16:12:53;;;;;;;16.63;12.80;;;;;;;;;;5093086;28;20451;-74
2021/12/04 16:15:21;;;;;;;20.00;14.37;;;;;;;;;;5096076;28;20454;-74
2021/12/04 16:17:50;;;;;;;24.07;15.10;;;;;;;;;;5096958;28;20793;-74
2021/12/04 16:20:19;;;;;;;20.20;13.73;;;;;;;;;;5096851;28;20454;-74
2021/12/04 16:22:48;;;;;;;21.00;17.60;;;;;;;;;;5096877;28;20866;-74
2021/12/04 16:25:17;;;;;;;36.23;23.40;;;;;;;;;;5096944;28;20442;-74
2021/12/04 16:27:55;;;;;;;22.47;15.93;;;;;;;;;;5096725;28;20451;-74
2021/12/04 16:30:33;;;;;;;22.77;16.60;;;;;;;;;;5096814;28;20443;-74
2021/12/04 16:33:11;;;;;;;25.40;17.20;;;;;;;;;;5096721;28;20453;-74
2021/12/04 16:35:45;;;;;;;22.47;17.07;;;;;;;;;;5096606;28;20457;-74
2021/12/04 16:38:16;;;;;;;23.27;17.23;;;;;;;;;;5096773;28;20545;-75
2021/12/04 16:40:44;;;;;;;26.60;18.43;;;;;;;;;;5096708;28;20446;-75
2021/12/04 16:43:14;;;;;;;23.57;16.70;;;;;;;;;;5096387;28;20442;-75
2021/12/04 16:45:42;;;;;;;27.83;18.30;;;;;;;;;;5096752;28;20954;-75
2021/12/04 16:48:12;;;;;;;19.63;13.77;;;;;;;;;;5096430;28;20447;-74
2021/12/04 16:54:54;;;;;;;19.33;12.57;;;;;;;;;;5096764;28;20894;-74
2021/12/04 16:56:32;;;;;;;16.57;11.70;;;;;;;;;;5096492;28;20519;-74
2021/12/04 16:59:00;;;;;;;19.87;13.10;;;;;;;;;;5096602;28;20458;-74
2021/12/04 17:01:28;;;;;;;18.53;12.60;;;;;;;;;;5096303;28;20451;-74
2021/12/04 17:03:56;;;;;;;14.47;9.43;;;;;;;;;;5095787;28;20486;-75
2021/12/04 17:06:24;;;;;;;18.77;11.70;;;;;;;;;;5096124;28;20442;-75
2021/12/04 17:08:51;;;;;;;24.07;15.70;;;;;;;;;;5095904;28;20786;-74
2021/12/04 17:11:18;;;;;;;25.23;12.80;;;;;;;;;;5096294;28;20458;-75
2021/12/04 17:13:46;;;;;;;32.83;20.07;;;;;;;;;;5096210;28;20450;-75
2021/12/04 17:16:25;;;;;;;24.23;16.40;;;;;;;;;;5094302;28;20454;-74
2021/12/04 17:18:57;;;;;;;21.10;13.20;;;;;;;;;;5093879;28;20531;-74